Eunola, Alabama
Current Conditions -  °F | °C
As of 3:15 PM on Saturday 22 Nov 2014 (Local Time) from KEDN Reporting Station
Drizzle Drizzle  
Wind Chill: 57°   Ceiling: 2300
Heat Index: 57°   Visibility: 5mi
Dew Point: 55°   Wind: 7mph
Humidity: 94%   Direction: 90°E
Pressure: 30.18"   Gusts: NA
Location:  31.0669°N, 85.9172°W
Report Text: KEDN 222115Z AUTO 09006KT 5SM -DZ SCT010 OVC023 14/13 A3018 RMK AO2
Loading
Personal Weather Stations






























Interactive Weather Map New forecast layout! Learn more

10-Day Weather Forecast

Advertisements
Track Severe Weather on mobile